sensor_id;sensor_type;location;lat;lon;timestamp;P1;durP1;ratioP1;P2;durP2;ratioP2
79438;SDS011;68889;48.232;10.110;2023-08-12T00:02:38;3.83;;;3.22;;
79438;SDS011;68889;48.232;10.110;2023-08-12T00:05:05;4.55;;;3.70;;
79438;SDS011;68889;48.232;10.110;2023-08-12T00:07:32;4.32;;;3.53;;
79438;SDS011;68889;48.232;10.110;2023-08-12T00:09:58;4.25;;;3.55;;
79438;SDS011;68889;48.232;10.110;2023-08-12T00:12:25;4.80;;;3.50;;
79438;SDS011;68889;48.232;10.110;2023-08-12T00:14:51;7.10;;;3.60;;
79438;SDS011;68889;48.232;10.110;2023-08-12T00:17:16;4.47;;;3.55;;
79438;SDS011;68889;48.232;10.110;2023-08-12T00:19:42;5.43;;;3.78;;
79438;SDS011;68889;48.232;10.110;2023-08-12T00:24:33;7.57;;;3.85;;
79438;SDS011;68889;48.232;10.110;2023-08-12T00:26:58;4.38;;;3.97;;
79438;SDS011;68889;48.232;10.110;2023-08-12T00:29:24;6.72;;;3.78;;
79438;SDS011;68889;48.232;10.110;2023-08-12T00:31:49;4.22;;;3.50;;
79438;SDS011;68889;48.232;10.110;2023-08-12T00:36:42;4.65;;;3.55;;
79438;SDS011;68889;48.232;10.110;2023-08-12T00:39:07;4.78;;;4.07;;
79438;SDS011;68889;48.232;10.110;2023-08-12T00:41:33;5.55;;;4.60;;
79438;SDS011;68889;48.232;10.110;2023-08-12T00:43:58;6.03;;;4.63;;
79438;SDS011;68889;48.232;10.110;2023-08-12T00:46:24;7.50;;;4.63;;
79438;SDS011;68889;48.232;10.110;2023-08-12T00:48:49;5.30;;;4.65;;
79438;SDS011;68889;48.232;10.110;2023-08-12T00:53:41;5.20;;;4.65;;
79438;SDS011;68889;48.232;10.110;2023-08-12T00:56:08;4.95;;;4.32;;
79438;SDS011;68889;48.232;10.110;2023-08-12T01:00:59;5.50;;;4.68;;
79438;SDS011;68889;48.232;10.110;2023-08-12T01:03:25;7.07;;;4.95;;
79438;SDS011;68889;48.232;10.110;2023-08-12T01:05:50;9.18;;;6.10;;
79438;SDS011;68889;48.232;10.110;2023-08-12T01:10:44;5.75;;;4.68;;
79438;SDS011;68889;48.232;10.110;2023-08-12T01:13:32;5.47;;;4.97;;
79438;SDS011;68889;48.232;10.110;2023-08-12T01:16:11;6.85;;;5.47;;
79438;SDS011;68889;48.232;10.110;2023-08-12T01:18:40;6.82;;;4.93;;
79438;SDS011;68889;48.232;10.110;2023-08-12T01:21:06;5.60;;;4.78;;
79438;SDS011;68889;48.232;10.110;2023-08-12T01:23:34;6.07;;;4.43;;
79438;SDS011;68889;48.232;10.110;2023-08-12T01:28:25;6.60;;;5.03;;
79438;SDS011;68889;48.232;10.110;2023-08-12T01:33:35;6.43;;;5.20;;
79438;SDS011;68889;48.232;10.110;2023-08-12T01:36:15;6.10;;;5.50;;
79438;SDS011;68889;48.232;10.110;2023-08-12T01:38:42;5.20;;;4.70;;
79438;SDS011;68889;48.232;10.110;2023-08-12T01:41:09;4.78;;;4.28;;
79438;SDS011;68889;48.232;10.110;2023-08-12T01:43:36;5.18;;;4.35;;
79438;SDS011;68889;48.232;10.110;2023-08-12T01:46:03;6.93;;;5.05;;
79438;SDS011;68889;48.232;10.110;2023-08-12T01:48:28;5.53;;;4.80;;
79438;SDS011;68889;48.232;10.110;2023-08-12T01:53:19;5.28;;;4.13;;
79438;SDS011;68889;48.232;10.110;2023-08-12T01:58:11;8.90;;;5.80;;
79438;SDS011;68889;48.232;10.110;2023-08-12T02:03:02;5.85;;;5.35;;
79438;SDS011;68889;48.232;10.110;2023-08-12T02:05:28;5.82;;;5.03;;
79438;SDS011;68889;48.232;10.110;2023-08-12T02:07:53;5.70;;;5.10;;
79438;SDS011;68889;48.232;10.110;2023-08-12T02:10:19;5.22;;;4.32;;
79438;SDS011;68889;48.232;10.110;2023-08-12T02:12:44;5.13;;;4.38;;
79438;SDS011;68889;48.232;10.110;2023-08-12T02:15:10;6.35;;;4.28;;
79438;SDS011;68889;48.232;10.110;2023-08-12T02:17:36;3.95;;;3.38;;
79438;SDS011;68889;48.232;10.110;2023-08-12T02:20:01;4.70;;;3.97;;
79438;SDS011;68889;48.232;10.110;2023-08-12T02:22:28;6.30;;;5.20;;
79438;SDS011;68889;48.232;10.110;2023-08-12T02:24:54;6.07;;;5.47;;
79438;SDS011;68889;48.232;10.110;2023-08-12T02:27:20;6.07;;;4.90;;
79438;SDS011;68889;48.232;10.110;2023-08-12T02:29:45;5.80;;;4.32;;
79438;SDS011;68889;48.232;10.110;2023-08-12T02:32:11;5.97;;;4.43;;
79438;SDS011;68889;48.232;10.110;2023-08-12T02:34:36;4.40;;;3.95;;
79438;SDS011;68889;48.232;10.110;2023-08-12T02:37:02;7.00;;;5.30;;
79438;SDS011;68889;48.232;10.110;2023-08-12T02:39:27;7.05;;;5.15;;
79438;SDS011;68889;48.232;10.110;2023-08-12T02:41:53;6.00;;;4.20;;
79438;SDS011;68889;48.232;10.110;2023-08-12T02:44:19;6.57;;;5.82;;
79438;SDS011;68889;48.232;10.110;2023-08-12T02:46:44;9.38;;;4.90;;
79438;SDS011;68889;48.232;10.110;2023-08-12T02:49:10;5.65;;;5.15;;
79438;SDS011;68889;48.232;10.110;2023-08-12T02:51:35;5.88;;;4.82;;
79438;SDS011;68889;48.232;10.110;2023-08-12T02:56:26;6.20;;;5.15;;
79438;SDS011;68889;48.232;10.110;2023-08-12T03:01:17;7.35;;;6.50;;
79438;SDS011;68889;48.232;10.110;2023-08-12T03:03:44;6.80;;;5.85;;
79438;SDS011;68889;48.232;10.110;2023-08-12T03:06:09;5.40;;;4.90;;
79438;SDS011;68889;48.232;10.110;2023-08-12T03:08:35;5.70;;;5.20;;
79438;SDS011;68889;48.232;10.110;2023-08-12T03:13:27;5.20;;;4.40;;
79438;SDS011;68889;48.232;10.110;2023-08-12T03:15:53;5.43;;;4.53;;
79438;SDS011;68889;48.232;10.110;2023-08-12T03:18:19;5.85;;;5.18;;
79438;SDS011;68889;48.232;10.110;2023-08-12T03:20:44;5.70;;;5.13;;
79438;SDS011;68889;48.232;10.110;2023-08-12T03:25:35;8.32;;;6.90;;
79438;SDS011;68889;48.232;10.110;2023-08-12T03:30:26;7.43;;;6.20;;
79438;SDS011;68889;48.232;10.110;2023-08-12T03:32:52;7.38;;;6.68;;
79438;SDS011;68889;48.232;10.110;2023-08-12T03:35:18;6.80;;;5.40;;
79438;SDS011;68889;48.232;10.110;2023-08-12T03:37:44;6.45;;;5.35;;
79438;SDS011;68889;48.232;10.110;2023-08-12T03:40:09;6.10;;;5.50;;
79438;SDS011;68889;48.232;10.110;2023-08-12T03:42:35;6.75;;;4.63;;
79438;SDS011;68889;48.232;10.110;2023-08-12T03:45:01;6.40;;;5.80;;
79438;SDS011;68889;48.232;10.110;2023-08-12T03:47:27;6.93;;;6.13;;
79438;SDS011;68889;48.232;10.110;2023-08-12T03:49:52;6.63;;;5.95;;
79438;SDS011;68889;48.232;10.110;2023-08-12T03:52:18;6.95;;;6.05;;
79438;SDS011;68889;48.232;10.110;2023-08-12T03:54:43;6.95;;;6.07;;
79438;SDS011;68889;48.232;10.110;2023-08-12T03:57:09;6.88;;;6.00;;
79438;SDS011;68889;48.232;10.110;2023-08-12T03:59:35;7.82;;;6.65;;
79438;SDS011;68889;48.232;10.110;2023-08-12T04:02:01;6.15;;;4.72;;
79438;SDS011;68889;48.232;10.110;2023-08-12T04:04:27;5.90;;;5.30;;
79438;SDS011;68889;48.232;10.110;2023-08-12T04:06:53;4.93;;;4.43;;
79438;SDS011;68889;48.232;10.110;2023-08-12T04:09:18;6.53;;;5.05;;
79438;SDS011;68889;48.232;10.110;2023-08-12T04:11:44;5.50;;;5.00;;
79438;SDS011;68889;48.232;10.110;2023-08-12T04:14:10;7.07;;;5.97;;
79438;SDS011;68889;48.232;10.110;2023-08-12T04:16:37;7.22;;;5.63;;
79438;SDS011;68889;48.232;10.110;2023-08-12T04:19:02;6.57;;;5.55;;
79438;SDS011;68889;48.232;10.110;2023-08-12T04:21:28;7.43;;;6.63;;
79438;SDS011;68889;48.232;10.110;2023-08-12T04:23:53;6.85;;;5.38;;
79438;SDS011;68889;48.232;10.110;2023-08-12T04:26:19;7.70;;;6.70;;
79438;SDS011;68889;48.232;10.110;2023-08-12T04:28:44;6.00;;;5.10;;
79438;SDS011;68889;48.232;10.110;2023-08-12T04:31:10;5.82;;;5.22;;
79438;SDS011;68889;48.232;10.110;2023-08-12T04:33:35;5.78;;;4.60;;
79438;SDS011;68889;48.232;10.110;2023-08-12T04:36:01;5.55;;;4.43;;
79438;SDS011;68889;48.232;10.110;2023-08-12T04:38:26;5.35;;;4.78;;
79438;SDS011;68889;48.232;10.110;2023-08-12T04:40:52;5.97;;;5.22;;
79438;SDS011;68889;48.232;10.110;2023-08-12T04:43:19;5.95;;;5.35;;
79438;SDS011;68889;48.232;10.110;2023-08-12T04:45:47;6.25;;;5.50;;
79438;SDS011;68889;48.232;10.110;2023-08-12T04:48:13;6.05;;;5.07;;
79438;SDS011;68889;48.232;10.110;2023-08-12T04:50:39;5.68;;;4.90;;
79438;SDS011;68889;48.232;10.110;2023-08-12T04:53:05;7.60;;;5.72;;
79438;SDS011;68889;48.232;10.110;2023-08-12T04:55:31;5.65;;;4.95;;
79438;SDS011;68889;48.232;10.110;2023-08-12T04:57:56;5.68;;;4.82;;
79438;SDS011;68889;48.232;10.110;2023-08-12T05:00:22;5.63;;;4.97;;
79438;SDS011;68889;48.232;10.110;2023-08-12T05:02:48;6.65;;;5.18;;
79438;SDS011;68889;48.232;10.110;2023-08-12T05:05:14;6.50;;;5.18;;
79438;SDS011;68889;48.232;10.110;2023-08-12T05:07:40;7.43;;;5.72;;
79438;SDS011;68889;48.232;10.110;2023-08-12T05:10:06;7.38;;;5.72;;
79438;SDS011;68889;48.232;10.110;2023-08-12T05:12:31;6.13;;;4.55;;
79438;SDS011;68889;48.232;10.110;2023-08-12T05:14:57;5.15;;;4.47;;
79438;SDS011;68889;48.232;10.110;2023-08-12T05:17:23;5.72;;;5.20;;
79438;SDS011;68889;48.232;10.110;2023-08-12T05:19:48;4.72;;;4.20;;
79438;SDS011;68889;48.232;10.110;2023-08-12T05:22:14;4.97;;;4.47;;
79438;SDS011;68889;48.232;10.110;2023-08-12T05:27:05;4.50;;;4.07;;
79438;SDS011;68889;48.232;10.110;2023-08-12T05:29:31;5.50;;;4.40;;
79438;SDS011;68889;48.232;10.110;2023-08-12T05:31:56;5.43;;;4.35;;
79438;SDS011;68889;48.232;10.110;2023-08-12T05:34:22;5.18;;;4.57;;
79438;SDS011;68889;48.232;10.110;2023-08-12T05:36:48;6.78;;;5.38;;
79438;SDS011;68889;48.232;10.110;2023-08-12T05:39:13;5.38;;;4.70;;
79438;SDS011;68889;48.232;10.110;2023-08-12T05:41:40;5.18;;;4.50;;
79438;SDS011;68889;48.232;10.110;2023-08-12T05:44:06;5.13;;;4.13;;
79438;SDS011;68889;48.232;10.110;2023-08-12T05:46:32;5.07;;;4.57;;
79438;SDS011;68889;48.232;10.110;2023-08-12T05:48:57;5.55;;;5.03;;
79438;SDS011;68889;48.232;10.110;2023-08-12T05:53:48;4.90;;;4.40;;
79438;SDS011;68889;48.232;10.110;2023-08-12T05:58:39;5.45;;;4.47;;
79438;SDS011;68889;48.232;10.110;2023-08-12T06:01:05;5.13;;;4.55;;
79438;SDS011;68889;48.232;10.110;2023-08-12T06:05:56;5.13;;;4.63;;
79438;SDS011;68889;48.232;10.110;2023-08-12T06:08:21;4.80;;;4.30;;
79438;SDS011;68889;48.232;10.110;2023-08-12T06:10:47;4.68;;;4.20;;
79438;SDS011;68889;48.232;10.110;2023-08-12T06:15:38;7.13;;;4.28;;
79438;SDS011;68889;48.232;10.110;2023-08-12T06:20:30;5.43;;;4.07;;
79438;SDS011;68889;48.232;10.110;2023-08-12T06:25:20;5.30;;;3.63;;
79438;SDS011;68889;48.232;10.110;2023-08-12T06:27:46;4.93;;;3.90;;
79438;SDS011;68889;48.232;10.110;2023-08-12T06:32:38;4.95;;;4.30;;
79438;SDS011;68889;48.232;10.110;2023-08-12T06:37:29;5.00;;;4.22;;
79438;SDS011;68889;48.232;10.110;2023-08-12T06:42:20;4.25;;;3.85;;
79438;SDS011;68889;48.232;10.110;2023-08-12T06:44:49;5.28;;;4.78;;
79438;SDS011;68889;48.232;10.110;2023-08-12T06:47:19;5.25;;;4.75;;
79438;SDS011;68889;48.232;10.110;2023-08-12T06:52:11;4.18;;;3.67;;
79438;SDS011;68889;48.232;10.110;2023-08-12T06:57:02;3.67;;;3.03;;
79438;SDS011;68889;48.232;10.110;2023-08-12T07:01:53;4.80;;;3.78;;
79438;SDS011;68889;48.232;10.110;2023-08-12T07:04:19;5.05;;;4.55;;
79438;SDS011;68889;48.232;10.110;2023-08-12T07:09:10;3.70;;;3.05;;
79438;SDS011;68889;48.232;10.110;2023-08-12T07:11:35;5.03;;;4.40;;
79438;SDS011;68889;48.232;10.110;2023-08-12T07:16:26;5.60;;;4.00;;
79438;SDS011;68889;48.232;10.110;2023-08-12T07:18:52;5.63;;;3.80;;
79438;SDS011;68889;48.232;10.110;2023-08-12T07:21:17;5.53;;;4.20;;
79438;SDS011;68889;48.232;10.110;2023-08-12T07:23:43;4.43;;;3.88;;
79438;SDS011;68889;48.232;10.110;2023-08-12T07:26:09;5.95;;;3.78;;
79438;SDS011;68889;48.232;10.110;2023-08-12T07:28:35;4.82;;;3.80;;
79438;SDS011;68889;48.232;10.110;2023-08-12T07:31:01;4.47;;;4.07;;
79438;SDS011;68889;48.232;10.110;2023-08-12T07:33:26;6.07;;;4.40;;
79438;SDS011;68889;48.232;10.110;2023-08-12T07:35:52;4.47;;;4.07;;
79438;SDS011;68889;48.232;10.110;2023-08-12T07:38:17;5.68;;;4.03;;
79438;SDS011;68889;48.232;10.110;2023-08-12T07:40:43;4.65;;;3.80;;
79438;SDS011;68889;48.232;10.110;2023-08-12T07:43:09;3.70;;;3.40;;
79438;SDS011;68889;48.232;10.110;2023-08-12T07:45:34;3.95;;;3.55;;
79438;SDS011;68889;48.232;10.110;2023-08-12T07:48:00;4.93;;;3.95;;
79438;SDS011;68889;48.232;10.110;2023-08-12T07:50:25;4.35;;;3.78;;
79438;SDS011;68889;48.232;10.110;2023-08-12T07:52:51;4.78;;;4.28;;
79438;SDS011;68889;48.232;10.110;2023-08-12T07:55:17;5.88;;;5.15;;
79438;SDS011;68889;48.232;10.110;2023-08-12T07:57:44;5.22;;;4.72;;
79438;SDS011;68889;48.232;10.110;2023-08-12T08:00:09;4.60;;;3.95;;
79438;SDS011;68889;48.232;10.110;2023-08-12T08:02:36;4.75;;;3.70;;
79438;SDS011;68889;48.232;10.110;2023-08-12T08:05:02;5.38;;;4.07;;
79438;SDS011;68889;48.232;10.110;2023-08-12T08:07:28;5.20;;;4.70;;
79438;SDS011;68889;48.232;10.110;2023-08-12T08:09:54;5.10;;;4.18;;
79438;SDS011;68889;48.232;10.110;2023-08-12T08:12:20;4.57;;;4.18;;
79438;SDS011;68889;48.232;10.110;2023-08-12T08:14:45;5.47;;;3.95;;
79438;SDS011;68889;48.232;10.110;2023-08-12T08:17:11;5.25;;;4.75;;
79438;SDS011;68889;48.232;10.110;2023-08-12T08:19:37;5.05;;;4.55;;
79438;SDS011;68889;48.232;10.110;2023-08-12T08:22:02;4.82;;;3.83;;
79438;SDS011;68889;48.232;10.110;2023-08-12T08:24:28;5.60;;;5.10;;
79438;SDS011;68889;48.232;10.110;2023-08-12T08:26:54;4.47;;;3.88;;
79438;SDS011;68889;48.232;10.110;2023-08-12T08:29:19;5.28;;;4.45;;
79438;SDS011;68889;48.232;10.110;2023-08-12T08:31:45;4.47;;;3.67;;
79438;SDS011;68889;48.232;10.110;2023-08-12T08:34:11;4.40;;;3.70;;
79438;SDS011;68889;48.232;10.110;2023-08-12T08:36:37;4.78;;;4.28;;
79438;SDS011;68889;48.232;10.110;2023-08-12T08:39:02;5.18;;;4.28;;
79438;SDS011;68889;48.232;10.110;2023-08-12T08:41:29;5.03;;;3.40;;
79438;SDS011;68889;48.232;10.110;2023-08-12T08:43:56;3.70;;;3.40;;
79438;SDS011;68889;48.232;10.110;2023-08-12T08:46:26;3.88;;;3.45;;
79438;SDS011;68889;48.232;10.110;2023-08-12T08:48:52;5.05;;;3.78;;
79438;SDS011;68889;48.232;10.110;2023-08-12T08:51:19;4.30;;;3.90;;
79438;SDS011;68889;48.232;10.110;2023-08-12T08:53:45;4.97;;;4.20;;
79438;SDS011;68889;48.232;10.110;2023-08-12T08:56:11;4.88;;;4.25;;
79438;SDS011;68889;48.232;10.110;2023-08-12T08:58:40;4.20;;;3.80;;
79438;SDS011;68889;48.232;10.110;2023-08-12T09:01:06;4.15;;;3.75;;
79438;SDS011;68889;48.232;10.110;2023-08-12T09:03:33;4.38;;;3.97;;
79438;SDS011;68889;48.232;10.110;2023-08-12T09:06:00;3.70;;;3.30;;
79438;SDS011;68889;48.232;10.110;2023-08-12T09:08:26;4.30;;;3.90;;
79438;SDS011;68889;48.232;10.110;2023-08-12T09:10:54;4.72;;;3.70;;
79438;SDS011;68889;48.232;10.110;2023-08-12T09:13:20;4.75;;;3.80;;
79438;SDS011;68889;48.232;10.110;2023-08-12T09:15:45;5.43;;;3.38;;
79438;SDS011;68889;48.232;10.110;2023-08-12T09:18:11;3.53;;;3.17;;
79438;SDS011;68889;48.232;10.110;2023-08-12T09:20:37;3.58;;;3.28;;
79438;SDS011;68889;48.232;10.110;2023-08-12T09:23:02;3.72;;;3.28;;
79438;SDS011;68889;48.232;10.110;2023-08-12T09:25:29;3.95;;;3.10;;
79438;SDS011;68889;48.232;10.110;2023-08-12T09:27:55;3.83;;;3.13;;
79438;SDS011;68889;48.232;10.110;2023-08-12T09:30:24;4.13;;;2.85;;
79438;SDS011;68889;48.232;10.110;2023-08-12T09:32:57;3.38;;;3.00;;
79438;SDS011;68889;48.232;10.110;2023-08-12T09:35:30;4.25;;;3.50;;
79438;SDS011;68889;48.232;10.110;2023-08-12T09:38:02;3.08;;;2.60;;
79438;SDS011;68889;48.232;10.110;2023-08-12T09:40:29;4.00;;;3.10;;
79438;SDS011;68889;48.232;10.110;2023-08-12T09:42:59;3.75;;;3.38;;
79438;SDS011;68889;48.232;10.110;2023-08-12T09:45:25;3.47;;;3.17;;
79438;SDS011;68889;48.232;10.110;2023-08-12T09:47:51;4.15;;;3.20;;
79438;SDS011;68889;48.232;10.110;2023-08-12T09:50:17;4.05;;;3.15;;
79438;SDS011;68889;48.232;10.110;2023-08-12T09:52:47;4.15;;;3.53;;
79438;SDS011;68889;48.232;10.110;2023-08-12T09:55:13;3.58;;;3.05;;
79438;SDS011;68889;48.232;10.110;2023-08-12T09:57:42;3.13;;;2.72;;
79438;SDS011;68889;48.232;10.110;2023-08-12T10:00:11;3.45;;;3.10;;
79438;SDS011;68889;48.232;10.110;2023-08-12T10:02:41;3.53;;;3.10;;
79438;SDS011;68889;48.232;10.110;2023-08-12T10:05:12;4.15;;;3.20;;
79438;SDS011;68889;48.232;10.110;2023-08-12T10:07:41;3.38;;;3.08;;
79438;SDS011;68889;48.232;10.110;2023-08-12T10:10:06;4.15;;;3.50;;
79438;SDS011;68889;48.232;10.110;2023-08-12T10:12:34;4.13;;;3.72;;
79438;SDS011;68889;48.232;10.110;2023-08-12T10:15:01;5.75;;;3.45;;
79438;SDS011;68889;48.232;10.110;2023-08-12T10:17:27;4.00;;;3.60;;
79438;SDS011;68889;48.232;10.110;2023-08-12T10:19:54;3.53;;;3.22;;
79438;SDS011;68889;48.232;10.110;2023-08-12T10:22:21;5.07;;;3.80;;
79438;SDS011;68889;48.232;10.110;2023-08-12T10:24:47;4.10;;;3.70;;
79438;SDS011;68889;48.232;10.110;2023-08-12T10:27:14;3.80;;;3.45;;
79438;SDS011;68889;48.232;10.110;2023-08-12T10:29:42;4.20;;;3.67;;
79438;SDS011;68889;48.232;10.110;2023-08-12T10:32:08;4.40;;;3.88;;
79438;SDS011;68889;48.232;10.110;2023-08-12T10:34:34;4.22;;;3.83;;
79438;SDS011;68889;48.232;10.110;2023-08-12T10:37:03;4.47;;;3.33;;
79438;SDS011;68889;48.232;10.110;2023-08-12T10:39:29;4.40;;;3.70;;
79438;SDS011;68889;48.232;10.110;2023-08-12T10:41:57;4.28;;;3.72;;
79438;SDS011;68889;48.232;10.110;2023-08-12T10:45:05;4.30;;;3.90;;
79438;SDS011;68889;48.232;10.110;2023-08-12T10:47:16;4.32;;;3.25;;
79438;SDS011;68889;48.232;10.110;2023-08-12T10:49:42;3.67;;;2.92;;
79438;SDS011;68889;48.232;10.110;2023-08-12T10:52:30;4.30;;;3.25;;
79438;SDS011;68889;48.232;10.110;2023-08-12T10:55:17;3.50;;;3.15;;
79438;SDS011;68889;48.232;10.110;2023-08-12T10:57:50;4.50;;;3.85;;
79438;SDS011;68889;48.232;10.110;2023-08-12T11:00:22;4.10;;;3.67;;
79438;SDS011;68889;48.232;10.110;2023-08-12T11:02:54;4.35;;;3.72;;
79438;SDS011;68889;48.232;10.110;2023-08-12T11:05:21;4.15;;;3.75;;
79438;SDS011;68889;48.232;10.110;2023-08-12T11:07:49;4.65;;;3.60;;
79438;SDS011;68889;48.232;10.110;2023-08-12T11:10:26;5.10;;;3.70;;
79438;SDS011;68889;48.232;10.110;2023-08-12T11:12:55;5.30;;;3.72;;
79438;SDS011;68889;48.232;10.110;2023-08-12T11:15:29;4.60;;;3.95;;
79438;SDS011;68889;48.232;10.110;2023-08-12T11:18:03;4.38;;;3.40;;
79438;SDS011;68889;48.232;10.110;2023-08-12T11:20:39;4.40;;;3.15;;
79438;SDS011;68889;48.232;10.110;2023-08-12T11:23:06;7.50;;;3.83;;
79438;SDS011;68889;48.232;10.110;2023-08-12T11:25:33;3.80;;;3.40;;
79438;SDS011;68889;48.232;10.110;2023-08-12T11:27:59;4.43;;;3.58;;
79438;SDS011;68889;48.232;10.110;2023-08-12T11:30:25;4.72;;;3.25;;
79438;SDS011;68889;48.232;10.110;2023-08-12T11:32:52;5.28;;;3.80;;
79438;SDS011;68889;48.232;10.110;2023-08-12T11:35:19;4.72;;;3.45;;
79438;SDS011;68889;48.232;10.110;2023-08-12T11:37:47;4.25;;;3.75;;
79438;SDS011;68889;48.232;10.110;2023-08-12T11:40:15;4.00;;;3.60;;
79438;SDS011;68889;48.232;10.110;2023-08-12T11:42:42;4.55;;;3.60;;
79438;SDS011;68889;48.232;10.110;2023-08-12T11:45:09;5.03;;;3.72;;
79438;SDS011;68889;48.232;10.110;2023-08-12T11:47:36;3.70;;;3.25;;
79438;SDS011;68889;48.232;10.110;2023-08-12T11:50:03;4.22;;;3.20;;
79438;SDS011;68889;48.232;10.110;2023-08-12T11:52:29;4.43;;;4.03;;
79438;SDS011;68889;48.232;10.110;2023-08-12T11:55:03;3.58;;;3.28;;
79438;SDS011;68889;48.232;10.110;2023-08-12T11:57:31;3.92;;;3.53;;
79438;SDS011;68889;48.232;10.110;2023-08-12T12:00:03;3.75;;;3.40;;
79438;SDS011;68889;48.232;10.110;2023-08-12T12:02:37;3.50;;;3.20;;
79438;SDS011;68889;48.232;10.110;2023-08-12T12:05:07;3.55;;;3.13;;
79438;SDS011;68889;48.232;10.110;2023-08-12T12:07:36;4.28;;;3.25;;
79438;SDS011;68889;48.232;10.110;2023-08-12T12:10:02;5.25;;;3.75;;
79438;SDS011;68889;48.232;10.110;2023-08-12T12:12:28;4.05;;;3.10;;
79438;SDS011;68889;48.232;10.110;2023-08-12T12:14:53;3.72;;;3.08;;
79438;SDS011;68889;48.232;10.110;2023-08-12T12:17:23;3.60;;;3.03;;
79438;SDS011;68889;48.232;10.110;2023-08-12T12:19:53;5.10;;;3.50;;
79438;SDS011;68889;48.232;10.110;2023-08-12T12:22:25;4.35;;;3.35;;
79438;SDS011;68889;48.232;10.110;2023-08-12T12:25:05;3.90;;;3.38;;
79438;SDS011;68889;48.232;10.110;2023-08-12T12:27:32;5.82;;;3.55;;
79438;SDS011;68889;48.232;10.110;2023-08-12T12:29:58;4.03;;;3.50;;
79438;SDS011;68889;48.232;10.110;2023-08-12T12:32:24;4.78;;;3.60;;
79438;SDS011;68889;48.232;10.110;2023-08-12T12:34:51;5.05;;;3.45;;
79438;SDS011;68889;48.232;10.110;2023-08-12T12:37:17;3.78;;;3.15;;
79438;SDS011;68889;48.232;10.110;2023-08-12T12:39:43;5.63;;;3.45;;
79438;SDS011;68889;48.232;10.110;2023-08-12T12:42:09;6.53;;;3.90;;
79438;SDS011;68889;48.232;10.110;2023-08-12T12:44:35;3.80;;;3.45;;
79438;SDS011;68889;48.232;10.110;2023-08-12T12:47:02;3.65;;;3.30;;
79438;SDS011;68889;48.232;10.110;2023-08-12T12:49:28;7.63;;;3.72;;
79438;SDS011;68889;48.232;10.110;2023-08-12T12:51:53;3.95;;;3.40;;
79438;SDS011;68889;48.232;10.110;2023-08-12T12:54:19;4.70;;;3.85;;
79438;SDS011;68889;48.232;10.110;2023-08-12T12:56:44;4.85;;;3.83;;
79438;SDS011;68889;48.232;10.110;2023-08-12T12:59:10;4.88;;;3.45;;
79438;SDS011;68889;48.232;10.110;2023-08-12T13:01:36;3.88;;;3.50;;
79438;SDS011;68889;48.232;10.110;2023-08-12T13:04:02;3.85;;;3.30;;
79438;SDS011;68889;48.232;10.110;2023-08-12T13:06:28;5.32;;;3.30;;
79438;SDS011;68889;48.232;10.110;2023-08-12T13:08:53;3.63;;;3.00;;
79438;SDS011;68889;48.232;10.110;2023-08-12T13:11:19;3.72;;;3.35;;
79438;SDS011;68889;48.232;10.110;2023-08-12T13:13:44;4.90;;;3.33;;
79438;SDS011;68889;48.232;10.110;2023-08-12T13:16:10;3.50;;;3.20;;
79438;SDS011;68889;48.232;10.110;2023-08-12T13:18:36;5.00;;;3.50;;
79438;SDS011;68889;48.232;10.110;2023-08-12T13:21:01;5.10;;;3.33;;
79438;SDS011;68889;48.232;10.110;2023-08-12T13:23:27;3.95;;;3.47;;
79438;SDS011;68889;48.232;10.110;2023-08-12T13:25:52;3.90;;;3.28;;
79438;SDS011;68889;48.232;10.110;2023-08-12T13:28:18;4.75;;;3.50;;
79438;SDS011;68889;48.232;10.110;2023-08-12T13:30:47;5.15;;;3.35;;
79438;SDS011;68889;48.232;10.110;2023-08-12T13:33:12;3.60;;;3.15;;
79438;SDS011;68889;48.232;10.110;2023-08-12T13:35:38;4.40;;;3.60;;
79438;SDS011;68889;48.232;10.110;2023-08-12T13:38:04;4.80;;;3.35;;
79438;SDS011;68889;48.232;10.110;2023-08-12T13:40:29;5.43;;;3.47;;
79438;SDS011;68889;48.232;10.110;2023-08-12T13:42:55;4.10;;;3.03;;
79438;SDS011;68889;48.232;10.110;2023-08-12T13:45:21;3.95;;;3.50;;
79438;SDS011;68889;48.232;10.110;2023-08-12T13:47:47;4.85;;;3.53;;
79438;SDS011;68889;48.232;10.110;2023-08-12T13:50:12;4.82;;;3.42;;
79438;SDS011;68889;48.232;10.110;2023-08-12T13:52:42;3.50;;;3.03;;
79438;SDS011;68889;48.232;10.110;2023-08-12T13:55:08;3.53;;;2.90;;
79438;SDS011;68889;48.232;10.110;2023-08-12T13:57:34;4.25;;;3.80;;
79438;SDS011;68889;48.232;10.110;2023-08-12T14:00:00;5.47;;;3.78;;
79438;SDS011;68889;48.232;10.110;2023-08-12T14:02:25;4.00;;;2.88;;
79438;SDS011;68889;48.232;10.110;2023-08-12T14:04:52;4.15;;;3.40;;
79438;SDS011;68889;48.232;10.110;2023-08-12T14:07:19;5.50;;;3.10;;
79438;SDS011;68889;48.232;10.110;2023-08-12T14:09:45;4.97;;;3.40;;
79438;SDS011;68889;48.232;10.110;2023-08-12T14:12:11;3.40;;;3.10;;
79438;SDS011;68889;48.232;10.110;2023-08-12T14:14:37;5.63;;;3.17;;
79438;SDS011;68889;48.232;10.110;2023-08-12T14:17:03;4.55;;;3.40;;
79438;SDS011;68889;48.232;10.110;2023-08-12T14:19:28;4.82;;;3.40;;
79438;SDS011;68889;48.232;10.110;2023-08-12T14:21:54;3.45;;;2.65;;
79438;SDS011;68889;48.232;10.110;2023-08-12T14:24:19;3.47;;;2.90;;
79438;SDS011;68889;48.232;10.110;2023-08-12T14:26:45;3.95;;;2.90;;
79438;SDS011;68889;48.232;10.110;2023-08-12T14:29:10;4.18;;;3.38;;
79438;SDS011;68889;48.232;10.110;2023-08-12T14:31:36;3.40;;;2.67;;
79438;SDS011;68889;48.232;10.110;2023-08-12T14:34:03;4.65;;;3.22;;
79438;SDS011;68889;48.232;10.110;2023-08-12T14:36:30;2.95;;;2.63;;
79438;SDS011;68889;48.232;10.110;2023-08-12T14:38:56;5.93;;;2.72;;
79438;SDS011;68889;48.232;10.110;2023-08-12T14:41:22;3.63;;;2.90;;
79438;SDS011;68889;48.232;10.110;2023-08-12T14:43:47;4.43;;;2.83;;
79438;SDS011;68889;48.232;10.110;2023-08-12T14:46:15;5.70;;;3.70;;
79438;SDS011;68889;48.232;10.110;2023-08-12T14:48:43;4.60;;;3.05;;
79438;SDS011;68889;48.232;10.110;2023-08-12T14:51:09;4.72;;;2.78;;
79438;SDS011;68889;48.232;10.110;2023-08-12T14:53:34;4.10;;;2.63;;
79438;SDS011;68889;48.232;10.110;2023-08-12T14:56:00;3.97;;;2.47;;
79438;SDS011;68889;48.232;10.110;2023-08-12T14:58:26;2.70;;;2.38;;
79438;SDS011;68889;48.232;10.110;2023-08-12T15:00:51;4.43;;;2.80;;
79438;SDS011;68889;48.232;10.110;2023-08-12T15:03:17;4.90;;;3.00;;
79438;SDS011;68889;48.232;10.110;2023-08-12T15:05:42;3.83;;;2.80;;
79438;SDS011;68889;48.232;10.110;2023-08-12T15:08:08;4.05;;;2.70;;
79438;SDS011;68889;48.232;10.110;2023-08-12T15:10:33;3.83;;;2.80;;
79438;SDS011;68889;48.232;10.110;2023-08-12T15:13:00;3.92;;;2.70;;
79438;SDS011;68889;48.232;10.110;2023-08-12T15:15:26;3.88;;;2.80;;
79438;SDS011;68889;48.232;10.110;2023-08-12T15:17:51;4.00;;;2.60;;
79438;SDS011;68889;48.232;10.110;2023-08-12T15:20:17;4.75;;;2.97;;
79438;SDS011;68889;48.232;10.110;2023-08-12T15:22:43;3.67;;;2.83;;
79438;SDS011;68889;48.232;10.110;2023-08-12T15:25:08;3.30;;;2.80;;
79438;SDS011;68889;48.232;10.110;2023-08-12T15:27:34;4.15;;;3.17;;
79438;SDS011;68889;48.232;10.110;2023-08-12T15:29:59;3.78;;;2.53;;
79438;SDS011;68889;48.232;10.110;2023-08-12T15:32:28;2.90;;;2.47;;
79438;SDS011;68889;48.232;10.110;2023-08-12T15:34:55;4.45;;;3.25;;
79438;SDS011;68889;48.232;10.110;2023-08-12T15:37:21;3.63;;;2.35;;
79438;SDS011;68889;48.232;10.110;2023-08-12T15:39:46;3.17;;;2.70;;
79438;SDS011;68889;48.232;10.110;2023-08-12T15:42:12;3.97;;;2.85;;
79438;SDS011;68889;48.232;10.110;2023-08-12T15:44:37;3.78;;;3.00;;